PWSweather.com
Personal Weather Stations
Station Observations
UISISLE1
Newport, Isle ofWight, ISLE OF WIGHT PO30 2JX

NewportIsle ofWight, ISLE OF WIGHT PO30 2JX

Lat: 50.72, Lon: -1.27

Elevation: 45

Station Type: Davis Vantage Pro Plus

http://www.isleofwightweather.co.uk

Latest ConditionsUpdated 7:15:01 PM GMT Tuesday, Nov 12, 2019
Currently Today's Max Today's Min Today's Average
Temperature 46.0°F7.8°C 48.7°F9.3°C 40.4°F4.7°C 44.3°F6.8°C
Dew Point 42.0°F5.6°C 42.6°F5.9°C 36.8°F2.7°C 39.1°F3.9°C
Winds 3.5 mph W5.6 kmh W 11.5 mph -18.5 kmh - - 5.5 mph 8.9 kmh
Wind Gusts 9.2 mph14.8 kmh 23.0 mph37.0 kmh - -
Humidity 86% 87% 71% 82%
Pressure 29.55 in1000.7 mb 29.62 in1003.0 mb 29.50 in999.0 mb -
Precipitation - 0.01 in0.3 mm - -
Hour Temp Dew Point Humidity Winds Wind Gusts Pressure Precip Precip Rate Daily Precip Total
07:15 PM 46.0°F7.8°C 42.0°F5.6°C 86% 3.5 mph W5.6 kmh W 9.2 mph14.8 kmh 29.55 in1000.7 mb - 0.00 in0.0 mm 0.01 in0.3 mm
07:00 PM 46.1°F7.8°C 42.1°F5.6°C 86% 4.6 mph W7.4 kmh W 11.5 mph18.5 kmh 29.55 in1000.7 mb - 0.00 in0.0 mm 0.01 in0.3 mm
06:45 PM 46.4°F8.0°C 42.1°F5.6°C 85% 4.6 mph W7.4 kmh W 11.5 mph18.5 kmh 29.54 in1000.3 mb - 0.00 in0.0 mm 0.01 in0.3 mm
06:30 PM 46.7°F8.2°C 42.4°F5.8°C 85% 6.9 mph WNW11.1 kmh WNW 8.1 mph13.0 kmh 29.54 in1000.3 mb - 0.00 in0.0 mm 0.01 in0.3 mm
06:15 PM 46.9°F8.3°C 42.6°F5.9°C 85% 9.2 mph W14.8 kmh W 13.8 mph22.2 kmh 29.53 in1000.0 mb - 0.00 in0.0 mm 0.01 in0.3 mm
06:00 PM 47.0°F8.3°C 42.4°F5.8°C 84% 4.6 mph W7.4 kmh W 6.9 mph11.1 kmh 29.54 in1000.3 mb - 0.00 in0.0 mm 0.01 in0.3 mm
05:45 PM 47.0°F8.3°C 42.4°F5.8°C 84% 3.5 mph W5.6 kmh W 8.1 mph13.0 kmh 29.53 in1000.0 mb - 0.00 in0.0 mm 0.01 in0.3 mm
05:30 PM 47.0°F8.3°C 42.4°F5.8°C 84% 5.8 mph WSW9.3 kmh WSW 12.7 mph20.4 kmh 29.53 in1000.0 mb - 0.01 in0.3 mm 0.01 in0.3 mm
05:15 PM 47.0°F8.3°C 42.1°F5.6°C 83% 8.1 mph W13.0 kmh W 11.5 mph18.5 kmh 29.53 in1000.0 mb - 0.01 in0.3 mm 0.01 in0.3 mm
05:00 PM 47.1°F8.4°C 42.2°F5.7°C 83% 5.8 mph WSW9.3 kmh WSW 6.9 mph11.1 kmh 29.52 in999.7 mb - 0.01 in0.3 mm 0.01 in0.3 mm
04:45 PM 47.1°F8.4°C 41.9°F5.5°C 82% 5.8 mph WSW9.3 kmh WSW 12.7 mph20.4 kmh 29.52 in999.7 mb - 0.01 in0.3 mm 0.01 in0.3 mm
04:30 PM 47.0°F8.3°C 41.8°F5.4°C 82% 6.9 mph W11.1 kmh W 11.5 mph18.5 kmh 29.51 in999.3 mb - 0.00 in0.0 mm 0.00 in0.0 mm
04:15 PM 46.8°F8.2°C 41.6°F5.3°C 82% 9.2 mph WSW14.8 kmh WSW 12.7 mph20.4 kmh 29.51 in999.3 mb - 0.00 in0.0 mm 0.00 in0.0 mm
04:00 PM 46.6°F8.1°C 41.4°F5.2°C 82% 6.9 mph WSW11.1 kmh WSW 12.7 mph20.4 kmh 29.51 in999.3 mb - 0.00 in0.0 mm 0.00 in0.0 mm
03:45 PM 46.4°F8.0°C 41.2°F5.1°C 82% 8.1 mph WSW13.0 kmh WSW 15.0 mph24.1 kmh 29.51 in999.3 mb - 0.00 in0.0 mm 0.00 in0.0 mm
03:30 PM 46.1°F7.8°C 40.9°F4.9°C 82% 8.1 mph WSW13.0 kmh WSW 13.8 mph22.2 kmh 29.51 in999.3 mb - 0.00 in0.0 mm 0.00 in0.0 mm
03:15 PM 46.2°F7.9°C 40.3°F4.6°C 80% 5.8 mph WSW9.3 kmh WSW 8.1 mph13.0 kmh 29.50 in999.0 mb - 0.00 in0.0 mm 0.00 in0.0 mm
03:00 PM 46.5°F8.1°C 40.4°F4.7°C 79% 6.9 mph WSW11.1 kmh WSW 15.0 mph24.1 kmh 29.50 in999.0 mb - 0.00 in0.0 mm 0.00 in0.0 mm
02:45 PM 47.0°F8.3°C 40.2°F4.6°C 77% 5.8 mph W9.3 kmh W 10.4 mph16.7 kmh 29.51 in999.3 mb - 0.00 in0.0 mm 0.00 in0.0 mm
02:30 PM 47.3°F8.5°C 39.8°F4.3°C 75% 5.8 mph W9.3 kmh W 10.4 mph16.7 kmh 29.52 in999.7 mb - 0.00 in0.0 mm 0.00 in0.0 mm
02:15 PM 47.7°F8.7°C 39.8°F4.3°C 74% 11.5 mph WSW18.5 kmh WSW 15.0 mph24.1 kmh 29.52 in999.7 mb - 0.00 in0.0 mm 0.00 in0.0 mm
02:00 PM 47.8°F8.8°C 39.2°F4.0°C 72% 6.9 mph W11.1 kmh W 15.0 mph24.1 kmh 29.52 in999.7 mb - 0.00 in0.0 mm 0.00 in0.0 mm
01:45 PM 47.9°F8.8°C 39.3°F4.1°C 72% 5.8 mph W9.3 kmh W 15.0 mph24.1 kmh 29.52 in999.7 mb - 0.00 in0.0 mm 0.00 in0.0 mm
01:30 PM 48.1°F8.9°C 39.1°F3.9°C 71% 4.6 mph W7.4 kmh W 9.2 mph14.8 kmh 29.52 in999.7 mb - 0.00 in0.0 mm 0.00 in0.0 mm
01:15 PM 48.7°F9.3°C 39.7°F4.3°C 71% 5.8 mph WSW9.3 kmh WSW 15.0 mph24.1 kmh 29.52 in999.7 mb - 0.00 in0.0 mm 0.00 in0.0 mm
01:00 PM 48.6°F9.2°C 40.0°F4.4°C 72% 6.9 mph W11.1 kmh W 8.1 mph13.0 kmh 29.52 in999.7 mb - 0.00 in0.0 mm 0.00 in0.0 mm
12:45 PM 48.1°F8.9°C 39.5°F4.2°C 72% 10.4 mph W16.7 kmh W 19.6 mph31.5 kmh 29.53 in1000.0 mb - 0.00 in0.0 mm 0.00 in0.0 mm
12:30 PM 47.8°F8.8°C 39.2°F4.0°C 72% 10.4 mph W16.7 kmh W 19.6 mph31.5 kmh 29.54 in1000.3 mb - 0.00 in0.0 mm 0.00 in0.0 mm
12:15 PM 47.5°F8.6°C 39.3°F4.1°C 73% 8.1 mph WSW13.0 kmh WSW 11.5 mph18.5 kmh 29.53 in1000.0 mb - 0.00 in0.0 mm 0.00 in0.0 mm
12:00 PM 47.2°F8.4°C 39.0°F3.9°C 73% 8.1 mph W13.0 kmh W 15.0 mph24.1 kmh 29.54 in1000.3 mb - 0.00 in0.0 mm 0.00 in0.0 mm
11:45 AM 47.0°F8.3°C 39.5°F4.2°C 75% 5.8 mph W9.3 kmh W 11.5 mph18.5 kmh 29.55 in1000.7 mb - 0.00 in0.0 mm 0.00 in0.0 mm
11:30 AM 47.0°F8.3°C 39.5°F4.2°C 75% 8.1 mph W13.0 kmh W 13.8 mph22.2 kmh 29.55 in1000.7 mb - 0.00 in0.0 mm 0.00 in0.0 mm
11:15 AM 46.9°F8.3°C 39.7°F4.3°C 76% 5.8 mph WSW9.3 kmh WSW 8.1 mph13.0 kmh 29.55 in1000.7 mb - 0.00 in0.0 mm 0.00 in0.0 mm
11:00 AM 46.6°F8.1°C 39.4°F4.1°C 76% 9.2 mph WSW14.8 kmh WSW 13.8 mph22.2 kmh 29.56 in1001.0 mb - 0.00 in0.0 mm 0.00 in0.0 mm
10:45 AM 46.1°F7.8°C 39.6°F4.2°C 78% 8.1 mph W13.0 kmh W 10.4 mph16.7 kmh 29.57 in1001.4 mb - 0.00 in0.0 mm 0.00 in0.0 mm
10:30 AM 45.5°F7.5°C 39.4°F4.1°C 79% 4.6 mph W7.4 kmh W 4.6 mph7.4 kmh 29.57 in1001.4 mb - 0.00 in0.0 mm 0.00 in0.0 mm
10:15 AM 45.0°F7.2°C 39.2°F4.0°C 80% 5.8 mph WSW9.3 kmh WSW 9.2 mph14.8 kmh 29.57 in1001.4 mb - 0.00 in0.0 mm 0.00 in0.0 mm
10:00 AM 44.5°F6.9°C 39.0°F3.9°C 81% 6.9 mph WSW11.1 kmh WSW 11.5 mph18.5 kmh 29.57 in1001.4 mb - 0.00 in0.0 mm 0.00 in0.0 mm
09:45 AM 44.0°F6.7°C 38.9°F3.8°C 82% 10.4 mph W16.7 kmh W 23.0 mph37.0 kmh 29.57 in1001.4 mb - 0.00 in0.0 mm 0.00 in0.0 mm
09:30 AM 43.5°F6.4°C 38.7°F3.7°C 83% 9.2 mph W14.8 kmh W 11.5 mph18.5 kmh 29.57 in1001.4 mb - 0.00 in0.0 mm 0.00 in0.0 mm
09:15 AM 43.2°F6.2°C 38.7°F3.7°C 84% 5.8 mph WSW9.3 kmh WSW 8.1 mph13.0 kmh 29.57 in1001.4 mb - 0.00 in0.0 mm 0.00 in0.0 mm
09:00 AM 42.5°F5.8°C 38.3°F3.5°C 85% 3.5 mph W5.6 kmh W 6.9 mph11.1 kmh 29.58 in1001.7 mb - 0.00 in0.0 mm 0.00 in0.0 mm
08:45 AM 42.0°F5.6°C 38.1°F3.4°C 86% 3.5 mph W5.6 kmh W 8.1 mph13.0 kmh 29.58 in1001.7 mb - 0.00 in0.0 mm 0.00 in0.0 mm
08:30 AM 41.5°F5.3°C 37.9°F3.3°C 87% 3.5 mph W5.6 kmh W 9.2 mph14.8 kmh 29.58 in1001.7 mb - 0.00 in0.0 mm 0.00 in0.0 mm
08:15 AM 41.1°F5.1°C 37.5°F3.1°C 87% 4.6 mph WSW7.4 kmh WSW 6.9 mph11.1 kmh 29.59 in1002.0 mb - 0.00 in0.0 mm 0.00 in0.0 mm
08:00 AM 40.7°F4.8°C 37.1°F2.8°C 87% 4.6 mph W7.4 kmh W 10.4 mph16.7 kmh 29.58 in1001.7 mb - 0.00 in0.0 mm 0.00 in0.0 mm
07:45 AM 40.4°F4.7°C 36.8°F2.7°C 87% 4.6 mph W7.4 kmh W 6.9 mph11.1 kmh 29.58 in1001.7 mb - 0.00 in0.0 mm 0.00 in0.0 mm
07:30 AM 40.4°F4.7°C 36.8°F2.7°C 87% 3.5 mph W5.6 kmh W 4.6 mph7.4 kmh 29.58 in1001.7 mb - 0.00 in0.0 mm 0.00 in0.0 mm
07:15 AM 40.5°F4.7°C 36.9°F2.7°C 87% 3.5 mph W5.6 kmh W 5.8 mph9.3 kmh 29.58 in1001.7 mb - 0.00 in0.0 mm 0.00 in0.0 mm
07:00 AM 40.6°F4.8°C 37.0°F2.8°C 87% 2.3 mph W3.7 kmh W 4.6 mph7.4 kmh 29.58 in1001.7 mb - 0.00 in0.0 mm 0.00 in0.0 mm
06:45 AM 40.7°F4.8°C 37.1°F2.8°C 87% 4.6 mph WSW7.4 kmh WSW 10.4 mph16.7 kmh 29.58 in1001.7 mb - 0.00 in0.0 mm 0.00 in0.0 mm
06:30 AM 40.7°F4.8°C 37.1°F2.8°C 87% 5.8 mph WSW9.3 kmh WSW 9.2 mph14.8 kmh 29.58 in1001.7 mb - 0.00 in0.0 mm 0.00 in0.0 mm
06:15 AM 40.8°F4.9°C 37.2°F2.9°C 87% 4.6 mph SW7.4 kmh SW 8.1 mph13.0 kmh 29.58 in1001.7 mb - 0.00 in0.0 mm 0.00 in0.0 mm
06:00 AM 40.7°F4.8°C 37.1°F2.8°C 87% 3.5 mph WSW5.6 kmh WSW 3.5 mph5.6 kmh 29.59 in1002.0 mb - 0.00 in0.0 mm 0.00 in0.0 mm
05:45 AM 40.7°F4.8°C 37.1°F2.8°C 87% 4.6 mph W7.4 kmh W 10.4 mph16.7 kmh 29.59 in1002.0 mb - 0.00 in0.0 mm 0.00 in0.0 mm
05:30 AM 40.8°F4.9°C 37.2°F2.9°C 87% 2.3 mph WSW3.7 kmh WSW 4.6 mph7.4 kmh 29.59 in1002.0 mb - 0.00 in0.0 mm 0.00 in0.0 mm
05:15 AM 40.8°F4.9°C 37.2°F2.9°C 87% 2.3 mph W3.7 kmh W 4.6 mph7.4 kmh 29.59 in1002.0 mb - 0.00 in0.0 mm 0.00 in0.0 mm
05:00 AM 40.7°F4.8°C 37.1°F2.8°C 87% 3.5 mph WNW5.6 kmh WNW 10.4 mph16.7 kmh 29.59 in1002.0 mb - 0.00 in0.0 mm 0.00 in0.0 mm
04:45 AM 40.8°F4.9°C 37.2°F2.9°C 87% 1.2 mph W1.9 kmh W 4.6 mph7.4 kmh 29.60 in1002.4 mb - 0.00 in0.0 mm 0.00 in0.0 mm
04:30 AM 40.9°F4.9°C 37.3°F2.9°C 87% 2.3 mph WSW3.7 kmh WSW 4.6 mph7.4 kmh 29.60 in1002.4 mb - 0.00 in0.0 mm 0.00 in0.0 mm
04:15 AM 41.1°F5.1°C 37.2°F2.9°C 86% 3.5 mph SW5.6 kmh SW 5.8 mph9.3 kmh 29.60 in1002.4 mb - 0.00 in0.0 mm 0.00 in0.0 mm
04:00 AM 41.3°F5.2°C 37.4°F3.0°C 86% 3.5 mph WSW5.6 kmh WSW 8.1 mph13.0 kmh 29.60 in1002.4 mb - 0.00 in0.0 mm 0.00 in0.0 mm
03:45 AM 41.6°F5.3°C 38.0°F3.3°C 87% 3.5 mph W5.6 kmh W 5.8 mph9.3 kmh 29.59 in1002.0 mb - 0.00 in0.0 mm 0.00 in0.0 mm
03:30 AM 41.7°F5.4°C 38.1°F3.4°C 87% 4.6 mph W7.4 kmh W 5.8 mph9.3 kmh 29.59 in1002.0 mb - 0.00 in0.0 mm 0.00 in0.0 mm
03:15 AM 41.9°F5.5°C 38.3°F3.5°C 87% 4.6 mph W7.4 kmh W 10.4 mph16.7 kmh 29.60 in1002.4 mb - 0.00 in0.0 mm 0.00 in0.0 mm
03:00 AM 42.0°F5.6°C 38.4°F3.6°C 87% 4.6 mph W7.4 kmh W 5.8 mph9.3 kmh 29.60 in1002.4 mb - 0.00 in0.0 mm 0.00 in0.0 mm
02:45 AM 42.0°F5.6°C 38.4°F3.6°C 87% 3.5 mph W5.6 kmh W 8.1 mph13.0 kmh 29.60 in1002.4 mb - 0.00 in0.0 mm 0.00 in0.0 mm
02:30 AM 41.9°F5.5°C 38.3°F3.5°C 87% 3.5 mph W5.6 kmh W 5.8 mph9.3 kmh 29.60 in1002.4 mb - 0.00 in0.0 mm 0.00 in0.0 mm
02:15 AM 41.9°F5.5°C 38.0°F3.3°C 86% 3.5 mph WSW5.6 kmh WSW 4.6 mph7.4 kmh 29.61 in1002.7 mb - 0.00 in0.0 mm 0.00 in0.0 mm
02:00 AM 42.0°F5.6°C 37.8°F3.2°C 85% 3.5 mph W5.6 kmh W 5.8 mph9.3 kmh 29.61 in1002.7 mb - 0.00 in0.0 mm 0.00 in0.0 mm
01:45 AM 42.3°F5.7°C 37.5°F3.1°C 83% 4.6 mph WSW7.4 kmh WSW 5.8 mph9.3 kmh 29.61 in1002.7 mb - 0.00 in0.0 mm 0.00 in0.0 mm
01:30 AM 42.7°F5.9°C 37.6°F3.1°C 82% 3.5 mph W5.6 kmh W 6.9 mph11.1 kmh 29.62 in1003.0 mb - 0.00 in0.0 mm 0.00 in0.0 mm
01:15 AM 43.0°F6.1°C 37.6°F3.1°C 81% 4.6 mph W7.4 kmh W 8.1 mph13.0 kmh 29.62 in1003.0 mb - 0.00 in0.0 mm 0.00 in0.0 mm
01:00 AM 43.2°F6.2°C 38.1°F3.4°C 82% 4.6 mph W7.4 kmh W 11.5 mph18.5 kmh 29.61 in1002.7 mb - 0.00 in0.0 mm 0.00 in0.0 mm
12:45 AM 43.3°F6.3°C 38.2°F3.4°C 82% 3.5 mph W5.6 kmh W 6.9 mph11.1 kmh 29.61 in1002.7 mb - 0.00 in0.0 mm 0.00 in0.0 mm
12:30 AM 43.5°F6.4°C 38.7°F3.7°C 83% 4.6 mph W7.4 kmh W 9.2 mph14.8 kmh 29.62 in1003.0 mb - 0.00 in0.0 mm 0.00 in0.0 mm
12:15 AM 43.5°F6.4°C 39.0°F3.9°C 84% 5.8 mph W9.3 kmh W 11.5 mph18.5 kmh 29.62 in1003.0 mb - 0.00 in0.0 mm 0.00 in0.0 mm
12:00 AM 43.4°F6.3°C 38.6°F3.7°C 83% 8.1 mph W13.0 kmh W 15.0 mph24.1 kmh 29.62 in1003.0 mb - 0.00 in0.0 mm 0.00 in0.0 mm